sensor_id;sensor_type;location;lat;lon;timestamp;P1;durP1;ratioP1;P2;durP2;ratioP2
63693;SDS011;49839;51.798;10.954;2022-11-20T00:00:22;6.88;;;3.42;;
63693;SDS011;49839;51.798;10.954;2022-11-20T00:02:49;7.38;;;3.40;;
63693;SDS011;49839;51.798;10.954;2022-11-20T00:05:17;11.80;;;3.70;;
63693;SDS011;49839;51.798;10.954;2022-11-20T00:07:45;8.50;;;2.97;;
63693;SDS011;49839;51.798;10.954;2022-11-20T00:10:13;6.80;;;3.03;;
63693;SDS011;49839;51.798;10.954;2022-11-20T00:12:40;7.47;;;3.47;;
63693;SDS011;49839;51.798;10.954;2022-11-20T00:15:08;9.93;;;3.40;;
63693;SDS011;49839;51.798;10.954;2022-11-20T00:17:37;8.27;;;3.78;;
63693;SDS011;49839;51.798;10.954;2022-11-20T00:20:05;7.93;;;3.47;;
63693;SDS011;49839;51.798;10.954;2022-11-20T00:22:32;9.45;;;3.65;;
63693;SDS011;49839;51.798;10.954;2022-11-20T00:25:00;11.52;;;4.28;;
63693;SDS011;49839;51.798;10.954;2022-11-20T00:27:27;9.70;;;4.20;;
63693;SDS011;49839;51.798;10.954;2022-11-20T00:29:54;9.65;;;4.30;;
63693;SDS011;49839;51.798;10.954;2022-11-20T00:32:22;5.88;;;3.35;;
63693;SDS011;49839;51.798;10.954;2022-11-20T00:34:52;7.53;;;2.92;;
63693;SDS011;49839;51.798;10.954;2022-11-20T00:37:19;5.60;;;2.70;;
63693;SDS011;49839;51.798;10.954;2022-11-20T00:39:47;6.25;;;2.40;;
63693;SDS011;49839;51.798;10.954;2022-11-20T00:42:14;5.25;;;2.30;;
63693;SDS011;49839;51.798;10.954;2022-11-20T00:44:41;5.88;;;2.47;;
63693;SDS011;49839;51.798;10.954;2022-11-20T00:47:09;5.05;;;2.10;;
63693;SDS011;49839;51.798;10.954;2022-11-20T00:49:36;9.57;;;3.75;;
63693;SDS011;49839;51.798;10.954;2022-11-20T00:52:05;11.82;;;4.60;;
63693;SDS011;49839;51.798;10.954;2022-11-20T00:54:32;6.80;;;2.60;;
63693;SDS011;49839;51.798;10.954;2022-11-20T00:57:00;6.78;;;2.58;;
63693;SDS011;49839;51.798;10.954;2022-11-20T00:59:27;5.63;;;2.42;;
63693;SDS011;49839;51.798;10.954;2022-11-20T01:01:55;5.80;;;2.92;;
63693;SDS011;49839;51.798;10.954;2022-11-20T01:04:22;7.10;;;3.40;;
63693;SDS011;49839;51.798;10.954;2022-11-20T01:06:49;6.90;;;3.40;;
63693;SDS011;49839;51.798;10.954;2022-11-20T01:09:18;5.68;;;2.72;;
63693;SDS011;49839;51.798;10.954;2022-11-20T01:11:46;7.63;;;3.20;;
63693;SDS011;49839;51.798;10.954;2022-11-20T01:14:14;8.18;;;2.97;;
63693;SDS011;49839;51.798;10.954;2022-11-20T01:16:43;8.57;;;2.70;;
63693;SDS011;49839;51.798;10.954;2022-11-20T01:19:11;6.82;;;2.75;;
63693;SDS011;49839;51.798;10.954;2022-11-20T01:21:48;6.50;;;3.20;;
63693;SDS011;49839;51.798;10.954;2022-11-20T01:24:16;7.47;;;2.75;;
63693;SDS011;49839;51.798;10.954;2022-11-20T01:26:47;5.93;;;2.83;;
63693;SDS011;49839;51.798;10.954;2022-11-20T01:29:15;5.63;;;2.25;;
63693;SDS011;49839;51.798;10.954;2022-11-20T01:31:43;5.72;;;2.17;;
63693;SDS011;49839;51.798;10.954;2022-11-20T01:34:12;5.60;;;2.35;;
63693;SDS011;49839;51.798;10.954;2022-11-20T01:36:40;6.15;;;2.30;;
63693;SDS011;49839;51.798;10.954;2022-11-20T01:39:10;4.40;;;2.08;;
63693;SDS011;49839;51.798;10.954;2022-11-20T01:41:38;4.95;;;2.20;;
63693;SDS011;49839;51.798;10.954;2022-11-20T01:47:07;9.55;;;3.40;;
63693;SDS011;49839;51.798;10.954;2022-11-20T01:49:37;9.63;;;3.83;;
63693;SDS011;49839;51.798;10.954;2022-11-20T01:52:07;13.55;;;4.07;;
63693;SDS011;49839;51.798;10.954;2022-11-20T01:54:38;17.73;;;6.15;;
63693;SDS011;49839;51.798;10.954;2022-11-20T01:59:34;55.67;;;16.80;;
63693;SDS011;49839;51.798;10.954;2022-11-20T02:02:05;40.78;;;16.38;;
63693;SDS011;49839;51.798;10.954;2022-11-20T02:04:33;21.23;;;8.38;;
63693;SDS011;49839;51.798;10.954;2022-11-20T02:07:01;15.32;;;5.55;;
63693;SDS011;49839;51.798;10.954;2022-11-20T02:09:29;12.98;;;5.47;;
63693;SDS011;49839;51.798;10.954;2022-11-20T02:11:56;15.73;;;6.57;;
63693;SDS011;49839;51.798;10.954;2022-11-20T02:14:25;15.35;;;5.43;;
63693;SDS011;49839;51.798;10.954;2022-11-20T02:16:52;15.10;;;5.60;;
63693;SDS011;49839;51.798;10.954;2022-11-20T02:19:22;14.80;;;5.88;;
63693;SDS011;49839;51.798;10.954;2022-11-20T02:21:54;14.15;;;6.50;;
63693;SDS011;49839;51.798;10.954;2022-11-20T02:24:25;14.18;;;6.90;;
63693;SDS011;49839;51.798;10.954;2022-11-20T02:26:53;13.70;;;6.28;;
63693;SDS011;49839;51.798;10.954;2022-11-20T02:29:23;11.93;;;4.50;;
63693;SDS011;49839;51.798;10.954;2022-11-20T02:31:52;9.93;;;3.45;;
63693;SDS011;49839;51.798;10.954;2022-11-20T02:34:21;10.82;;;4.20;;
63693;SDS011;49839;51.798;10.954;2022-11-20T02:36:48;11.40;;;5.25;;
63693;SDS011;49839;51.798;10.954;2022-11-20T02:39:16;12.52;;;5.90;;
63693;SDS011;49839;51.798;10.954;2022-11-20T02:41:45;14.45;;;5.65;;
63693;SDS011;49839;51.798;10.954;2022-11-20T02:44:13;11.10;;;5.30;;
63693;SDS011;49839;51.798;10.954;2022-11-20T02:46:40;10.38;;;5.13;;
63693;SDS011;49839;51.798;10.954;2022-11-20T02:49:07;10.35;;;4.85;;
63693;SDS011;49839;51.798;10.954;2022-11-20T02:51:35;11.93;;;4.72;;
63693;SDS011;49839;51.798;10.954;2022-11-20T02:54:02;10.02;;;5.30;;
63693;SDS011;49839;51.798;10.954;2022-11-20T02:56:30;9.70;;;4.93;;
63693;SDS011;49839;51.798;10.954;2022-11-20T02:58:59;9.85;;;4.43;;
63693;SDS011;49839;51.798;10.954;2022-11-20T03:01:26;11.48;;;4.70;;
63693;SDS011;49839;51.798;10.954;2022-11-20T03:03:54;12.10;;;5.10;;
63693;SDS011;49839;51.798;10.954;2022-11-20T03:06:22;12.82;;;5.20;;
63693;SDS011;49839;51.798;10.954;2022-11-20T03:08:49;9.20;;;4.25;;
63693;SDS011;49839;51.798;10.954;2022-11-20T03:11:17;8.68;;;3.72;;
63693;SDS011;49839;51.798;10.954;2022-11-20T03:13:44;10.38;;;3.97;;
63693;SDS011;49839;51.798;10.954;2022-11-20T03:16:14;8.82;;;3.40;;
63693;SDS011;49839;51.798;10.954;2022-11-20T03:18:42;7.60;;;3.35;;
63693;SDS011;49839;51.798;10.954;2022-11-20T03:21:09;8.75;;;3.00;;
63693;SDS011;49839;51.798;10.954;2022-11-20T03:23:37;8.85;;;3.30;;
63693;SDS011;49839;51.798;10.954;2022-11-20T03:26:11;8.10;;;3.47;;
63693;SDS011;49839;51.798;10.954;2022-11-20T03:28:39;7.60;;;3.08;;
63693;SDS011;49839;51.798;10.954;2022-11-20T03:31:07;8.20;;;3.65;;
63693;SDS011;49839;51.798;10.954;2022-11-20T03:33:36;7.85;;;3.03;;
63693;SDS011;49839;51.798;10.954;2022-11-20T03:36:04;6.63;;;2.90;;
63693;SDS011;49839;51.798;10.954;2022-11-20T03:38:32;7.72;;;2.78;;
63693;SDS011;49839;51.798;10.954;2022-11-20T03:41:00;7.90;;;3.05;;
63693;SDS011;49839;51.798;10.954;2022-11-20T03:43:28;6.68;;;3.25;;
63693;SDS011;49839;51.798;10.954;2022-11-20T03:45:55;6.35;;;3.13;;
63693;SDS011;49839;51.798;10.954;2022-11-20T03:48:22;7.03;;;2.75;;
63693;SDS011;49839;51.798;10.954;2022-11-20T03:50:51;6.63;;;2.70;;
63693;SDS011;49839;51.798;10.954;2022-11-20T03:53:19;5.05;;;2.45;;
63693;SDS011;49839;51.798;10.954;2022-11-20T03:55:50;6.72;;;2.65;;
63693;SDS011;49839;51.798;10.954;2022-11-20T03:58:17;7.47;;;2.38;;
63693;SDS011;49839;51.798;10.954;2022-11-20T04:00:45;6.00;;;2.33;;
63693;SDS011;49839;51.798;10.954;2022-11-20T04:03:12;5.43;;;2.63;;
63693;SDS011;49839;51.798;10.954;2022-11-20T04:05:39;5.03;;;2.15;;
63693;SDS011;49839;51.798;10.954;2022-11-20T04:08:08;6.60;;;2.65;;
63693;SDS011;49839;51.798;10.954;2022-11-20T04:10:35;5.18;;;2.35;;
63693;SDS011;49839;51.798;10.954;2022-11-20T04:13:03;5.05;;;1.90;;
63693;SDS011;49839;51.798;10.954;2022-11-20T04:15:31;4.88;;;2.10;;
63693;SDS011;49839;51.798;10.954;2022-11-20T04:18:03;6.40;;;2.88;;
63693;SDS011;49839;51.798;10.954;2022-11-20T04:20:31;5.63;;;2.33;;
63693;SDS011;49839;51.798;10.954;2022-11-20T04:22:58;5.90;;;2.70;;
63693;SDS011;49839;51.798;10.954;2022-11-20T04:25:27;7.03;;;2.97;;
63693;SDS011;49839;51.798;10.954;2022-11-20T04:27:54;6.80;;;3.03;;
63693;SDS011;49839;51.798;10.954;2022-11-20T04:30:22;6.82;;;3.15;;
63693;SDS011;49839;51.798;10.954;2022-11-20T04:32:49;6.50;;;3.13;;
63693;SDS011;49839;51.798;10.954;2022-11-20T04:35:16;6.82;;;2.97;;
63693;SDS011;49839;51.798;10.954;2022-11-20T04:37:44;6.88;;;3.25;;
63693;SDS011;49839;51.798;10.954;2022-11-20T04:40:11;7.32;;;3.15;;
63693;SDS011;49839;51.798;10.954;2022-11-20T04:42:40;7.28;;;3.40;;
63693;SDS011;49839;51.798;10.954;2022-11-20T04:45:08;7.97;;;2.95;;
63693;SDS011;49839;51.798;10.954;2022-11-20T04:47:35;8.95;;;2.90;;
63693;SDS011;49839;51.798;10.954;2022-11-20T04:50:03;7.72;;;3.10;;
63693;SDS011;49839;51.798;10.954;2022-11-20T04:52:30;5.75;;;2.10;;
63693;SDS011;49839;51.798;10.954;2022-11-20T04:54:57;6.07;;;2.03;;
63693;SDS011;49839;51.798;10.954;2022-11-20T04:57:25;6.63;;;2.35;;
63693;SDS011;49839;51.798;10.954;2022-11-20T04:59:54;5.32;;;2.20;;
63693;SDS011;49839;51.798;10.954;2022-11-20T05:02:21;6.70;;;2.80;;
63693;SDS011;49839;51.798;10.954;2022-11-20T05:04:49;7.05;;;2.97;;
63693;SDS011;49839;51.798;10.954;2022-11-20T05:07:16;8.05;;;3.38;;
63693;SDS011;49839;51.798;10.954;2022-11-20T05:09:43;10.48;;;3.17;;
63693;SDS011;49839;51.798;10.954;2022-11-20T05:12:11;6.43;;;2.63;;
63693;SDS011;49839;51.798;10.954;2022-11-20T05:14:38;8.60;;;3.55;;
63693;SDS011;49839;51.798;10.954;2022-11-20T05:17:07;6.40;;;2.33;;
63693;SDS011;49839;51.798;10.954;2022-11-20T05:19:36;5.53;;;2.35;;
63693;SDS011;49839;51.798;10.954;2022-11-20T05:22:04;11.20;;;4.22;;
63693;SDS011;49839;51.798;10.954;2022-11-20T05:24:31;12.23;;;4.22;;
63693;SDS011;49839;51.798;10.954;2022-11-20T05:26:58;8.77;;;3.20;;
63693;SDS011;49839;51.798;10.954;2022-11-20T05:29:26;7.47;;;3.25;;
63693;SDS011;49839;51.798;10.954;2022-11-20T05:31:53;7.93;;;3.58;;
63693;SDS011;49839;51.798;10.954;2022-11-20T05:34:22;10.63;;;5.38;;
63693;SDS011;49839;51.798;10.954;2022-11-20T05:36:49;14.77;;;7.25;;
63693;SDS011;49839;51.798;10.954;2022-11-20T05:39:16;15.02;;;6.32;;
63693;SDS011;49839;51.798;10.954;2022-11-20T05:41:44;10.07;;;4.72;;
63693;SDS011;49839;51.798;10.954;2022-11-20T05:44:13;12.80;;;4.35;;
63693;SDS011;49839;51.798;10.954;2022-11-20T05:46:40;12.25;;;4.25;;
63693;SDS011;49839;51.798;10.954;2022-11-20T05:49:07;11.50;;;5.22;;
63693;SDS011;49839;51.798;10.954;2022-11-20T05:51:36;13.73;;;5.63;;
63693;SDS011;49839;51.798;10.954;2022-11-20T05:54:04;9.80;;;5.13;;
63693;SDS011;49839;51.798;10.954;2022-11-20T05:56:31;8.15;;;4.03;;
63693;SDS011;49839;51.798;10.954;2022-11-20T05:58:58;9.80;;;4.05;;
63693;SDS011;49839;51.798;10.954;2022-11-20T06:01:26;10.63;;;3.80;;
63693;SDS011;49839;51.798;10.954;2022-11-20T06:03:53;8.43;;;3.67;;
63693;SDS011;49839;51.798;10.954;2022-11-20T06:06:21;9.45;;;3.88;;
63693;SDS011;49839;51.798;10.954;2022-11-20T06:08:50;7.07;;;3.17;;
63693;SDS011;49839;51.798;10.954;2022-11-20T06:11:17;9.38;;;3.67;;
63693;SDS011;49839;51.798;10.954;2022-11-20T06:13:45;7.15;;;3.38;;
63693;SDS011;49839;51.798;10.954;2022-11-20T06:16:13;8.60;;;3.72;;
63693;SDS011;49839;51.798;10.954;2022-11-20T06:18:40;8.23;;;3.60;;
63693;SDS011;49839;51.798;10.954;2022-11-20T06:21:08;7.50;;;3.50;;
63693;SDS011;49839;51.798;10.954;2022-11-20T06:23:37;7.20;;;3.00;;
63693;SDS011;49839;51.798;10.954;2022-11-20T06:26:06;7.28;;;3.22;;
63693;SDS011;49839;51.798;10.954;2022-11-20T06:28:33;9.90;;;3.80;;
63693;SDS011;49839;51.798;10.954;2022-11-20T06:31:01;8.02;;;3.42;;
63693;SDS011;49839;51.798;10.954;2022-11-20T06:33:29;7.47;;;3.10;;
63693;SDS011;49839;51.798;10.954;2022-11-20T06:35:56;8.57;;;3.20;;
63693;SDS011;49839;51.798;10.954;2022-11-20T06:38:29;7.28;;;3.20;;
63693;SDS011;49839;51.798;10.954;2022-11-20T06:40:56;10.40;;;4.57;;
63693;SDS011;49839;51.798;10.954;2022-11-20T06:43:25;10.60;;;4.50;;
63693;SDS011;49839;51.798;10.954;2022-11-20T06:45:52;11.93;;;4.50;;
63693;SDS011;49839;51.798;10.954;2022-11-20T06:48:20;7.85;;;3.85;;
63693;SDS011;49839;51.798;10.954;2022-11-20T06:50:47;9.60;;;4.32;;
63693;SDS011;49839;51.798;10.954;2022-11-20T06:53:15;10.68;;;5.22;;
63693;SDS011;49839;51.798;10.954;2022-11-20T06:55:42;17.13;;;6.72;;
63693;SDS011;49839;51.798;10.954;2022-11-20T06:58:10;19.63;;;8.02;;
63693;SDS011;49839;51.798;10.954;2022-11-20T07:00:39;14.80;;;7.18;;
63693;SDS011;49839;51.798;10.954;2022-11-20T07:03:07;16.83;;;7.82;;
63693;SDS011;49839;51.798;10.954;2022-11-20T07:05:35;16.80;;;7.45;;
63693;SDS011;49839;51.798;10.954;2022-11-20T07:08:03;17.85;;;7.47;;
63693;SDS011;49839;51.798;10.954;2022-11-20T07:10:31;14.07;;;6.03;;
63693;SDS011;49839;51.798;10.954;2022-11-20T07:12:58;13.30;;;6.43;;
63693;SDS011;49839;51.798;10.954;2022-11-20T07:15:26;12.45;;;5.20;;
63693;SDS011;49839;51.798;10.954;2022-11-20T07:17:55;12.88;;;5.10;;
63693;SDS011;49839;51.798;10.954;2022-11-20T07:20:22;8.00;;;3.97;;
63693;SDS011;49839;51.798;10.954;2022-11-20T07:22:52;9.15;;;3.85;;
63693;SDS011;49839;51.798;10.954;2022-11-20T07:25:20;9.80;;;4.35;;
63693;SDS011;49839;51.798;10.954;2022-11-20T07:27:47;9.13;;;4.05;;
63693;SDS011;49839;51.798;10.954;2022-11-20T07:30:15;10.52;;;4.82;;
63693;SDS011;49839;51.798;10.954;2022-11-20T07:32:42;10.15;;;5.05;;
63693;SDS011;49839;51.798;10.954;2022-11-20T07:35:14;11.73;;;6.30;;
63693;SDS011;49839;51.798;10.954;2022-11-20T07:37:41;10.85;;;5.22;;
63693;SDS011;49839;51.798;10.954;2022-11-20T07:40:09;13.73;;;5.90;;
63693;SDS011;49839;51.798;10.954;2022-11-20T07:42:37;10.38;;;5.43;;
63693;SDS011;49839;51.798;10.954;2022-11-20T07:45:05;12.88;;;5.80;;
63693;SDS011;49839;51.798;10.954;2022-11-20T07:47:34;9.02;;;4.18;;
63693;SDS011;49839;51.798;10.954;2022-11-20T07:50:02;12.23;;;5.68;;
63693;SDS011;49839;51.798;10.954;2022-11-20T07:52:31;10.20;;;4.90;;
63693;SDS011;49839;51.798;10.954;2022-11-20T07:54:58;14.00;;;5.50;;
63693;SDS011;49839;51.798;10.954;2022-11-20T07:57:25;11.65;;;5.32;;
63693;SDS011;49839;51.798;10.954;2022-11-20T07:59:53;9.40;;;4.35;;
63693;SDS011;49839;51.798;10.954;2022-11-20T08:02:21;8.00;;;3.88;;
63693;SDS011;49839;51.798;10.954;2022-11-20T08:04:48;8.05;;;3.78;;
63693;SDS011;49839;51.798;10.954;2022-11-20T08:07:15;10.88;;;4.65;;
63693;SDS011;49839;51.798;10.954;2022-11-20T08:09:44;7.60;;;2.95;;
63693;SDS011;49839;51.798;10.954;2022-11-20T08:12:15;7.20;;;3.00;;
63693;SDS011;49839;51.798;10.954;2022-11-20T08:15:04;7.55;;;3.58;;
63693;SDS011;49839;51.798;10.954;2022-11-20T08:17:38;8.15;;;3.50;;
63693;SDS011;49839;51.798;10.954;2022-11-20T08:20:06;9.57;;;4.55;;
63693;SDS011;49839;51.798;10.954;2022-11-20T08:22:33;10.40;;;4.60;;
63693;SDS011;49839;51.798;10.954;2022-11-20T08:25:02;8.70;;;3.75;;
63693;SDS011;49839;51.798;10.954;2022-11-20T08:27:31;6.93;;;2.43;;
63693;SDS011;49839;51.798;10.954;2022-11-20T08:29:58;3.80;;;1.47;;
63693;SDS011;49839;51.798;10.954;2022-11-20T08:32:26;4.07;;;1.83;;
63693;SDS011;49839;51.798;10.954;2022-11-20T08:34:53;3.60;;;1.50;;
63693;SDS011;49839;51.798;10.954;2022-11-20T08:37:21;4.78;;;2.10;;
63693;SDS011;49839;51.798;10.954;2022-11-20T08:39:48;5.75;;;2.28;;
63693;SDS011;49839;51.798;10.954;2022-11-20T08:42:17;6.15;;;2.65;;
63693;SDS011;49839;51.798;10.954;2022-11-20T08:44:44;6.03;;;3.08;;
63693;SDS011;49839;51.798;10.954;2022-11-20T08:47:12;4.70;;;2.28;;
63693;SDS011;49839;51.798;10.954;2022-11-20T08:49:39;5.00;;;2.53;;
63693;SDS011;49839;51.798;10.954;2022-11-20T08:52:06;6.28;;;3.10;;
63693;SDS011;49839;51.798;10.954;2022-11-20T08:54:34;5.57;;;2.80;;
63693;SDS011;49839;51.798;10.954;2022-11-20T08:57:01;8.27;;;2.70;;
63693;SDS011;49839;51.798;10.954;2022-11-20T08:59:30;5.72;;;2.00;;
63693;SDS011;49839;51.798;10.954;2022-11-20T09:02:18;4.00;;;1.83;;
63693;SDS011;49839;51.798;10.954;2022-11-20T09:04:45;4.63;;;1.60;;
63693;SDS011;49839;51.798;10.954;2022-11-20T09:07:13;3.15;;;1.38;;
63693;SDS011;49839;51.798;10.954;2022-11-20T09:09:40;3.40;;;1.33;;
63693;SDS011;49839;51.798;10.954;2022-11-20T09:12:07;4.25;;;1.52;;
63693;SDS011;49839;51.798;10.954;2022-11-20T09:14:36;5.45;;;1.60;;
63693;SDS011;49839;51.798;10.954;2022-11-20T09:17:04;4.30;;;1.83;;
63693;SDS011;49839;51.798;10.954;2022-11-20T09:19:33;4.38;;;2.00;;
63693;SDS011;49839;51.798;10.954;2022-11-20T09:22:01;4.80;;;2.10;;
63693;SDS011;49839;51.798;10.954;2022-11-20T09:24:29;7.85;;;3.92;;
63693;SDS011;49839;51.798;10.954;2022-11-20T09:26:56;8.63;;;4.05;;
63693;SDS011;49839;51.798;10.954;2022-11-20T09:29:24;6.82;;;3.50;;
63693;SDS011;49839;51.798;10.954;2022-11-20T09:31:53;4.88;;;2.42;;
63693;SDS011;49839;51.798;10.954;2022-11-20T09:34:20;6.23;;;2.00;;
63693;SDS011;49839;51.798;10.954;2022-11-20T09:36:48;3.63;;;1.45;;
63693;SDS011;49839;51.798;10.954;2022-11-20T09:39:15;1.73;;;1.00;;
63693;SDS011;49839;51.798;10.954;2022-11-20T09:41:47;2.00;;;0.88;;
63693;SDS011;49839;51.798;10.954;2022-11-20T09:44:19;7.78;;;3.05;;
63693;SDS011;49839;51.798;10.954;2022-11-20T09:46:54;5.93;;;3.15;;
63693;SDS011;49839;51.798;10.954;2022-11-20T09:49:26;2.22;;;1.02;;
63693;SDS011;49839;51.798;10.954;2022-11-20T09:51:58;2.08;;;0.98;;
63693;SDS011;49839;51.798;10.954;2022-11-20T09:54:27;3.63;;;1.20;;
63693;SDS011;49839;51.798;10.954;2022-11-20T09:56:58;3.17;;;1.13;;
63693;SDS011;49839;51.798;10.954;2022-11-20T09:59:29;2.65;;;1.15;;
63693;SDS011;49839;51.798;10.954;2022-11-20T10:02:00;4.00;;;1.63;;
63693;SDS011;49839;51.798;10.954;2022-11-20T10:04:29;6.63;;;2.95;;
63693;SDS011;49839;51.798;10.954;2022-11-20T10:07:04;4.93;;;2.40;;
63693;SDS011;49839;51.798;10.954;2022-11-20T10:09:54;7.28;;;2.35;;
63693;SDS011;49839;51.798;10.954;2022-11-20T10:12:25;4.10;;;1.98;;
63693;SDS011;49839;51.798;10.954;2022-11-20T10:15:01;4.35;;;2.20;;
63693;SDS011;49839;51.798;10.954;2022-11-20T10:17:50;6.03;;;2.60;;
63693;SDS011;49839;51.798;10.954;2022-11-20T10:20:23;4.30;;;2.15;;
63693;SDS011;49839;51.798;10.954;2022-11-20T10:22:59;4.20;;;2.00;;
63693;SDS011;49839;51.798;10.954;2022-11-20T10:25:33;5.68;;;2.35;;
63693;SDS011;49839;51.798;10.954;2022-11-20T10:28:10;4.43;;;2.40;;
63693;SDS011;49839;51.798;10.954;2022-11-20T10:30:41;4.50;;;2.30;;
63693;SDS011;49839;51.798;10.954;2022-11-20T10:33:13;4.13;;;2.00;;
63693;SDS011;49839;51.798;10.954;2022-11-20T10:35:44;7.32;;;2.10;;
63693;SDS011;49839;51.798;10.954;2022-11-20T10:38:14;3.40;;;1.60;;
63693;SDS011;49839;51.798;10.954;2022-11-20T10:40:45;5.05;;;1.67;;
63693;SDS011;49839;51.798;10.954;2022-11-20T10:43:15;2.80;;;1.42;;
63693;SDS011;49839;51.798;10.954;2022-11-20T10:45:47;3.65;;;1.63;;
63693;SDS011;49839;51.798;10.954;2022-11-20T10:48:21;2.95;;;1.67;;
63693;SDS011;49839;51.798;10.954;2022-11-20T10:51:01;6.55;;;2.15;;
63693;SDS011;49839;51.798;10.954;2022-11-20T10:53:35;5.93;;;2.10;;
63693;SDS011;49839;51.798;10.954;2022-11-20T10:56:05;9.38;;;2.00;;
63693;SDS011;49839;51.798;10.954;2022-11-20T10:58:35;2.95;;;1.60;;
63693;SDS011;49839;51.798;10.954;2022-11-20T11:01:05;5.68;;;2.13;;
63693;SDS011;49839;51.798;10.954;2022-11-20T11:03:42;3.58;;;2.08;;
63693;SDS011;49839;51.798;10.954;2022-11-20T11:06:12;3.85;;;1.90;;
63693;SDS011;49839;51.798;10.954;2022-11-20T11:08:41;3.78;;;1.98;;
63693;SDS011;49839;51.798;10.954;2022-11-20T11:11:14;6.47;;;3.83;;
63693;SDS011;49839;51.798;10.954;2022-11-20T11:13:44;4.00;;;2.00;;
63693;SDS011;49839;51.798;10.954;2022-11-20T11:16:16;7.55;;;2.20;;
63693;SDS011;49839;51.798;10.954;2022-11-20T11:18:48;5.90;;;2.30;;
63693;SDS011;49839;51.798;10.954;2022-11-20T11:21:21;2.78;;;1.10;;
63693;SDS011;49839;51.798;10.954;2022-11-20T11:23:56;2.83;;;1.20;;
63693;SDS011;49839;51.798;10.954;2022-11-20T11:26:50;0.95;;;0.55;;
63693;SDS011;49839;51.798;10.954;2022-11-20T11:29:18;1.80;;;0.80;;
63693;SDS011;49839;51.798;10.954;2022-11-20T11:31:46;1.30;;;0.68;;
63693;SDS011;49839;51.798;10.954;2022-11-20T11:34:16;1.10;;;0.55;;
63693;SDS011;49839;51.798;10.954;2022-11-20T11:36:49;2.53;;;1.02;;
63693;SDS011;49839;51.798;10.954;2022-11-20T11:39:20;2.00;;;0.80;;
63693;SDS011;49839;51.798;10.954;2022-11-20T11:41:48;4.45;;;1.30;;
63693;SDS011;49839;51.798;10.954;2022-11-20T11:44:16;3.58;;;1.45;;
63693;SDS011;49839;51.798;10.954;2022-11-20T11:47:01;3.53;;;1.25;;
63693;SDS011;49839;51.798;10.954;2022-11-20T11:49:31;4.43;;;1.80;;
63693;SDS011;49839;51.798;10.954;2022-11-20T11:52:00;3.80;;;1.60;;
63693;SDS011;49839;51.798;10.954;2022-11-20T11:54:30;4.70;;;1.70;;
63693;SDS011;49839;51.798;10.954;2022-11-20T11:56:58;5.50;;;1.77;;
63693;SDS011;49839;51.798;10.954;2022-11-20T11:59:28;2.70;;;1.47;;
63693;SDS011;49839;51.798;10.954;2022-11-20T12:02:05;3.67;;;1.70;;
63693;SDS011;49839;51.798;10.954;2022-11-20T12:04:42;3.70;;;1.15;;
63693;SDS011;49839;51.798;10.954;2022-11-20T12:07:11;3.00;;;1.33;;
63693;SDS011;49839;51.798;10.954;2022-11-20T12:10:00;2.38;;;1.10;;
63693;SDS011;49839;51.798;10.954;2022-11-20T12:12:30;3.10;;;0.98;;
63693;SDS011;49839;51.798;10.954;2022-11-20T12:14:59;3.17;;;0.98;;
63693;SDS011;49839;51.798;10.954;2022-11-20T12:17:26;2.85;;;1.17;;
63693;SDS011;49839;51.798;10.954;2022-11-20T12:19:55;2.70;;;0.70;;
63693;SDS011;49839;51.798;10.954;2022-11-20T12:22:26;1.77;;;0.60;;
63693;SDS011;49839;51.798;10.954;2022-11-20T12:24:58;3.38;;;1.30;;
63693;SDS011;49839;51.798;10.954;2022-11-20T12:27:35;1.95;;;1.10;;
63693;SDS011;49839;51.798;10.954;2022-11-20T12:30:07;2.85;;;1.08;;
63693;SDS011;49839;51.798;10.954;2022-11-20T12:35:32;3.33;;;1.02;;
63693;SDS011;49839;51.798;10.954;2022-11-20T12:38:08;1.33;;;0.57;;
63693;SDS011;49839;51.798;10.954;2022-11-20T12:40:43;2.38;;;0.80;;
63693;SDS011;49839;51.798;10.954;2022-11-20T12:43:14;2.97;;;0.77;;
63693;SDS011;49839;51.798;10.954;2022-11-20T12:51:36;0.73;;;0.50;;
63693;SDS011;49839;51.798;10.954;2022-11-20T12:56:56;2.55;;;0.65;;
63693;SDS011;49839;51.798;10.954;2022-11-20T12:59:33;2.45;;;0.88;;
63693;SDS011;49839;51.798;10.954;2022-11-20T13:02:09;3.25;;;1.67;;
63693;SDS011;49839;51.798;10.954;2022-11-20T13:04:55;4.25;;;2.10;;
63693;SDS011;49839;51.798;10.954;2022-11-20T13:07:26;5.07;;;1.95;;
63693;SDS011;49839;51.798;10.954;2022-11-20T13:09:54;4.28;;;1.95;;
63693;SDS011;49839;51.798;10.954;2022-11-20T13:12:23;6.38;;;2.67;;
63693;SDS011;49839;51.798;10.954;2022-11-20T13:17:20;5.28;;;2.67;;
63693;SDS011;49839;51.798;10.954;2022-11-20T13:19:49;7.30;;;3.15;;
63693;SDS011;49839;51.798;10.954;2022-11-20T13:22:23;5.55;;;2.60;;
63693;SDS011;49839;51.798;10.954;2022-11-20T13:24:52;6.63;;;3.00;;
63693;SDS011;49839;51.798;10.954;2022-11-20T13:27:20;7.28;;;3.72;;
63693;SDS011;49839;51.798;10.954;2022-11-20T13:30:10;5.05;;;2.38;;
63693;SDS011;49839;51.798;10.954;2022-11-20T13:32:47;5.53;;;2.90;;
63693;SDS011;49839;51.798;10.954;2022-11-20T13:35:23;6.18;;;3.00;;
63693;SDS011;49839;51.798;10.954;2022-11-20T13:37:59;6.88;;;3.13;;
63693;SDS011;49839;51.798;10.954;2022-11-20T13:40:28;6.15;;;2.85;;
63693;SDS011;49839;51.798;10.954;2022-11-20T13:42:56;8.20;;;3.95;;
63693;SDS011;49839;51.798;10.954;2022-11-20T13:45:28;7.05;;;3.53;;
63693;SDS011;49839;51.798;10.954;2022-11-20T13:47:57;6.88;;;3.00;;
63693;SDS011;49839;51.798;10.954;2022-11-20T13:50:31;6.05;;;2.50;;
63693;SDS011;49839;51.798;10.954;2022-11-20T13:53:06;6.45;;;3.20;;
63693;SDS011;49839;51.798;10.954;2022-11-20T13:55:40;8.00;;;4.60;;
63693;SDS011;49839;51.798;10.954;2022-11-20T13:58:24;8.05;;;3.92;;
63693;SDS011;49839;51.798;10.954;2022-11-20T14:00:58;11.88;;;5.13;;
63693;SDS011;49839;51.798;10.954;2022-11-20T14:03:28;12.05;;;5.20;;
63693;SDS011;49839;51.798;10.954;2022-11-20T14:06:20;14.40;;;5.93;;
63693;SDS011;49839;51.798;10.954;2022-11-20T14:08:52;16.10;;;8.52;;
63693;SDS011;49839;51.798;10.954;2022-11-20T14:11:22;13.20;;;6.38;;
63693;SDS011;49839;51.798;10.954;2022-11-20T14:13:57;23.08;;;10.85;;
63693;SDS011;49839;51.798;10.954;2022-11-20T14:16:27;17.02;;;7.07;;
63693;SDS011;49839;51.798;10.954;2022-11-20T14:18:55;8.70;;;3.30;;
63693;SDS011;49839;51.798;10.954;2022-11-20T14:21:24;7.68;;;3.67;;
63693;SDS011;49839;51.798;10.954;2022-11-20T14:23:52;6.63;;;3.72;;
63693;SDS011;49839;51.798;10.954;2022-11-20T14:26:21;9.48;;;4.82;;
63693;SDS011;49839;51.798;10.954;2022-11-20T14:28:49;10.35;;;4.82;;
63693;SDS011;49839;51.798;10.954;2022-11-20T14:31:21;10.55;;;4.63;;
63693;SDS011;49839;51.798;10.954;2022-11-20T14:33:50;10.90;;;4.97;;
63693;SDS011;49839;51.798;10.954;2022-11-20T14:36:18;9.45;;;5.07;;
63693;SDS011;49839;51.798;10.954;2022-11-20T14:38:47;9.25;;;5.15;;
63693;SDS011;49839;51.798;10.954;2022-11-20T14:41:17;13.32;;;6.40;;
63693;SDS011;49839;51.798;10.954;2022-11-20T14:43:47;11.95;;;5.57;;
63693;SDS011;49839;51.798;10.954;2022-11-20T14:46:17;10.40;;;6.05;;
63693;SDS011;49839;51.798;10.954;2022-11-20T14:48:45;13.27;;;6.20;;
63693;SDS011;49839;51.798;10.954;2022-11-20T14:51:23;12.70;;;6.88;;
63693;SDS011;49839;51.798;10.954;2022-11-20T14:53:51;15.80;;;8.13;;
63693;SDS011;49839;51.798;10.954;2022-11-20T14:56:20;12.23;;;7.35;;
63693;SDS011;49839;51.798;10.954;2022-11-20T14:58:56;15.70;;;9.00;;
63693;SDS011;49839;51.798;10.954;2022-11-20T15:01:30;20.88;;;11.57;;
63693;SDS011;49839;51.798;10.954;2022-11-20T15:06:32;22.95;;;11.57;;